Time,TemperatureF,DewpointF,PressureIn,WindDirection,WindDirectionDegrees,WindSpeedMPH,WindSpeedGustMPH,Humidity,HourlyPrecipIn,Conditions,Clouds,dailyrainin,SoftwareType,DateUTC
2014-01-21 06:22:00,50.4,43.1,29.75,WSW,248,4.0,4.0,76,0.00,,,0.00,WUHU216HW,2014-01-21 11:22:00,
2014-01-21 06:23:00,50.4,43.1,29.75,SW,225,4.3,5.8,76,0.00,,,0.00,WUHU216HW,2014-01-21 11:23:00,
2014-01-21 06:28:00,50.4,42.8,29.74,WSW,248,5.4,9.8,75,0.00,,,0.00,WUHU216HW,2014-01-21 11:28:00,
2014-01-21 06:33:00,50.6,42.9,29.74,SSW,203,5.4,9.8,75,0.00,,,0.00,WUHU216HW,2014-01-21 11:33:00,
2014-01-21 06:38:00,50.6,42.9,29.75,SW,225,5.4,7.6,75,0.00,,,0.00,WUHU216HW,2014-01-21 11:38:00,
2014-01-21 06:43:00,50.6,42.9,29.75,SW,225,5.4,5.4,75,0.00,,,0.00,WUHU216HW,2014-01-21 11:43:00,
2014-01-21 06:48:00,50.4,42.8,29.75,WSW,248,3.4,8.9,75,0.00,,,0.00,WUHU216HW,2014-01-21 11:48:00,
2014-01-21 06:53:00,50.4,42.8,29.75,WSW,248,7.4,8.9,75,0.00,,,0.00,WUHU216HW,2014-01-21 11:53:00,
2014-01-21 06:58:00,50.4,42.8,29.74,WSW,248,7.4,7.4,75,0.00,,,0.00,WUHU216HW,2014-01-21 11:58:00,
2014-01-21 07:03:00,50.6,42.6,29.75,WSW,248,2.2,7.6,74,0.00,,,0.00,WUHU216HW,2014-01-21 12:03:00,
2014-01-21 07:08:00,50.6,42.6,29.75,SSW,203,6.3,8.5,74,0.00,,,0.00,WUHU216HW,2014-01-21 12:08:00,
2014-01-21 07:13:00,50.6,42.6,29.75,WSW,248,8.5,8.5,74,0.00,,,0.00,WUHU216HW,2014-01-21 12:13:00,
2014-01-21 07:18:00,50.8,42.8,29.74,WSW,248,3.6,8.5,74,0.00,,,0.00,WUHU216HW,2014-01-21 12:18:00,
2014-01-21 07:23:00,50.6,42.9,29.74,SW,225,3.1,6.0,75,0.00,,,0.00,WUHU216HW,2014-01-21 12:23:00,
2014-01-21 07:28:00,50.8,43.1,29.74,WSW,248,3.1,6.0,75,0.00,,,0.00,WUHU216HW,2014-01-21 12:28:00,
2014-01-21 07:33:00,50.8,43.1,29.74,SSE,158,4.5,5.8,75,0.00,,,0.00,WUHU216HW,2014-01-21 12:33:00,
2014-01-21 07:38:00,50.8,43.1,29.73,SSW,203,5.4,6.0,75,0.00,,,0.00,WUHU216HW,2014-01-21 12:38:00,
2014-01-21 07:43:00,50.9,43.7,29.73,WSW,248,4.0,6.0,76,0.00,,,0.00,WUHU216HW,2014-01-21 12:43:00,
2014-01-21 07:48:00,51.1,43.8,29.73,SW,225,5.1,5.8,76,0.00,,,0.00,WUHU216HW,2014-01-21 12:48:00,
2014-01-21 07:53:00,51.3,44.0,29.73,SW,225,6.3,6.7,76,0.00,,,0.00,WUHU216HW,2014-01-21 12:53:00,
2014-01-21 07:58:00,51.5,44.2,29.72,WSW,248,4.5,6.7,76,0.00,,,0.00,WUHU216HW,2014-01-21 12:58:00,
2014-01-21 08:03:00,51.8,44.6,29.72,SW,225,4.3,6.9,76,0.00,,,0.00,WUHU216HW,2014-01-21 13:03:00,
2014-01-21 08:08:00,52.0,44.7,29.72,South,180,6.0,8.3,76,0.00,,,0.00,WUHU216HW,2014-01-21 13:08:00,
2014-01-21 08:13:00,52.4,44.7,29.71,SW,225,4.0,8.3,75,0.00,,,0.00,WUHU216HW,2014-01-21 13:13:00,
2014-01-21 08:18:00,52.6,44.9,29.71,SSW,203,2.9,6.3,75,0.00,,,0.00,WUHU216HW,2014-01-21 13:18:00,
2014-01-21 08:23:00,52.9,45.2,29.70,South,180,4.3,7.8,75,0.00,,,0.00,WUHU216HW,2014-01-21 13:23:00,
2014-01-21 08:28:00,53.3,45.2,29.70,SW,225,4.9,7.8,74,0.00,,,0.00,WUHU216HW,2014-01-21 13:28:00,
2014-01-21 08:33:00,53.6,45.5,29.70,SSW,203,6.0,6.5,74,0.00,,,0.00,WUHU216HW,2014-01-21 13:33:00,
2014-01-21 08:38:00,53.8,45.4,29.70,SW,225,3.6,6.5,73,0.00,,,0.00,WUHU216HW,2014-01-21 13:38:00,
2014-01-21 08:43:00,54.2,45.7,29.70,SSW,203,2.5,10.3,73,0.00,,,0.00,WUHU216HW,2014-01-21 13:43:00,
2014-01-21 08:48:00,54.4,45.6,29.69,South,180,6.5,10.3,72,0.00,,,0.00,WUHU216HW,2014-01-21 13:48:00,
2014-01-21 08:53:00,54.7,45.9,29.69,WSW,248,6.9,6.9,72,0.00,,,0.00,WUHU216HW,2014-01-21 13:53:00,
2014-01-21 08:58:00,55.1,46.3,29.69,SSW,203,3.4,6.9,72,0.00,,,0.00,WUHU216HW,2014-01-21 13:58:00,
2014-01-21 09:03:00,55.6,46.5,29.69,SSW,203,7.6,7.6,71,0.00,,,0.00,WUHU216HW,2014-01-21 14:03:00,
2014-01-21 09:08:00,55.8,46.5,29.69,SE,135,4.7,9.4,71,0.00,,,0.00,WUHU216HW,2014-01-21 14:08:00,
2014-01-21 09:13:00,56.2,46.5,29.69,SW,225,10.3,10.3,70,0.00,,,0.00,WUHU216HW,2014-01-21 14:13:00,
2014-01-21 09:18:00,56.5,46.9,29.69,WSW,248,5.8,10.3,70,0.00,,,0.00,WUHU216HW,2014-01-21 14:18:00,
2014-01-21 09:23:00,56.5,46.4,29.69,SW,225,6.7,10.7,69,0.00,,,0.00,WUHU216HW,2014-01-21 14:23:00,
2014-01-21 09:28:00,56.9,46.8,29.69,SW,225,6.3,11.4,69,0.00,,,0.00,WUHU216HW,2014-01-21 14:28:00,
2014-01-21 09:33:00,57.4,47.4,29.69,WSW,248,5.8,11.4,69,0.00,,,0.00,WUHU216HW,2014-01-21 14:33:00,
2014-01-21 09:38:00,57.6,47.5,29.69,SW,225,8.7,8.7,69,0.00,,,0.00,WUHU216HW,2014-01-21 14:38:00,
2014-01-21 09:43:00,57.6,46.7,29.68,WSW,248,10.1,10.1,67,0.00,,,0.00,WUHU216HW,2014-01-21 14:43:00,
2014-01-21 09:48:00,57.6,46.7,29.68,SSW,203,6.9,10.5,67,0.00,,,0.00,WUHU216HW,2014-01-21 14:48:00,
2014-01-21 09:53:00,57.6,46.3,29.68,SSE,158,6.9,15.7,66,0.00,,,0.00,WUHU216HW,2014-01-21 14:53:00,
2014-01-21 09:58:00,57.8,46.4,29.68,SSW,203,8.5,15.7,66,0.00,,,0.00,WUHU216HW,2014-01-21 14:58:00,
2014-01-21 10:03:00,58.0,45.8,29.68,WSW,248,7.6,11.0,64,0.00,,,0.00,WUHU216HW,2014-01-21 15:03:00,
2014-01-21 10:08:00,58.0,45.8,29.68,SW,225,9.8,11.9,64,0.00,,,0.00,WUHU216HW,2014-01-21 15:08:00,
2014-01-21 10:13:00,58.1,46.4,29.68,SW,225,8.3,15.4,65,0.00,,,0.00,WUHU216HW,2014-01-21 15:13:00,
2014-01-21 10:18:00,58.3,46.2,29.67,SW,225,4.5,15.4,64,0.00,,,0.00,WUHU216HW,2014-01-21 15:18:00,
2014-01-21 10:23:00,58.7,46.5,29.67,WSW,248,9.2,9.2,64,0.00,,,0.00,WUHU216HW,2014-01-21 15:23:00,
2014-01-21 10:28:00,58.7,46.5,29.67,SSW,203,7.6,9.2,64,0.00,,,0.00,WUHU216HW,2014-01-21 15:28:00,
2014-01-21 10:33:00,58.7,46.1,29.67,SW,225,8.5,15.2,63,0.00,,,0.00,WUHU216HW,2014-01-21 15:33:00,
2014-01-21 10:38:00,58.9,46.3,29.66,SW,225,11.4,15.2,63,0.00,,,0.00,WUHU216HW,2014-01-21 15:38:00,
2014-01-21 10:43:00,58.9,46.3,29.66,WSW,248,6.3,11.4,63,0.00,,,0.00,WUHU216HW,2014-01-21 15:43:00,
2014-01-21 10:48:00,59.0,46.8,29.66,SW,225,9.8,9.8,64,0.00,,,0.00,WUHU216HW,2014-01-21 15:48:00,
2014-01-21 10:53:00,59.2,46.6,29.65,ESE,113,8.7,14.1,63,0.00,,,0.00,WUHU216HW,2014-01-21 15:53:00,
2014-01-21 10:58:00,59.2,47.0,29.65,SSW,203,8.9,14.1,64,0.00,,,0.00,WUHU216HW,2014-01-21 15:58:00,
2014-01-21 11:03:00,59.6,47.3,29.65,West,270,8.9,12.8,64,0.00,,,0.00,WUHU216HW,2014-01-21 16:03:00,
2014-01-21 11:08:00,59.8,47.2,29.65,WSW,248,8.9,12.3,63,0.00,,,0.00,WUHU216HW,2014-01-21 16:08:00,
2014-01-21 11:13:00,59.9,47.7,29.64,SW,225,6.9,11.4,64,0.00,,,0.00,WUHU216HW,2014-01-21 16:13:00,
2014-01-21 11:18:00,60.1,48.3,29.64,SW,225,8.3,9.2,65,0.00,,,0.00,WUHU216HW,2014-01-21 16:18:00,
2014-01-21 11:23:00,60.1,47.9,29.63,SW,225,5.8,9.8,64,0.00,,,0.00,WUHU216HW,2014-01-21 16:23:00,
2014-01-21 11:28:00,60.1,47.9,29.63,SSE,158,6.5,10.1,64,0.00,,,0.00,WUHU216HW,2014-01-21 16:28:00,
2014-01-21 11:33:00,60.1,47.9,29.63,WSW,248,12.1,12.1,64,0.00,,,0.00,WUHU216HW,2014-01-21 16:33:00,
2014-01-21 11:38:00,60.1,48.3,29.63,West,270,8.7,12.1,65,0.00,,,0.00,WUHU216HW,2014-01-21 16:38:00,
2014-01-21 11:43:00,60.3,48.5,29.63,WSW,248,10.5,10.5,65,0.00,,,0.00,WUHU216HW,2014-01-21 16:43:00,
2014-01-21 11:48:00,60.3,48.5,29.62,SW,225,6.5,14.1,65,0.00,,,0.00,WUHU216HW,2014-01-21 16:48:00,
2014-01-21 11:53:00,60.1,48.3,29.62,South,180,10.3,14.1,65,0.00,,,0.00,WUHU216HW,2014-01-21 16:53:00,
2014-01-21 11:58:00,59.8,47.5,29.62,WSW,248,7.2,12.5,64,0.00,,,0.00,WUHU216HW,2014-01-21 16:58:00,
2014-01-21 12:03:00,59.6,47.3,29.61,SW,225,12.3,15.0,64,0.00,,,0.00,WUHU216HW,2014-01-21 17:03:00,
2014-01-21 12:08:00,59.4,47.2,29.60,SW,225,7.6,15.0,64,0.00,,,0.00,WUHU216HW,2014-01-21 17:08:00,
2014-01-21 12:13:00,59.6,47.3,29.60,SW,225,9.2,12.8,64,0.00,,,0.00,WUHU216HW,2014-01-21 17:13:00,
2014-01-21 12:18:00,59.6,47.3,29.60,WSW,248,9.4,10.5,64,0.00,,,0.00,WUHU216HW,2014-01-21 17:18:00,
2014-01-21 12:23:00,59.6,47.3,29.60,SW,225,13.0,15.4,64,0.00,,,0.00,WUHU216HW,2014-01-21 17:23:00,
2014-01-21 12:28:00,59.8,47.5,29.59,SSW,203,15.0,15.4,64,0.00,,,0.00,WUHU216HW,2014-01-21 17:28:00,
2014-01-21 12:33:00,59.4,47.2,29.59,WSW,248,8.1,15.0,64,0.00,,,0.00,WUHU216HW,2014-01-21 17:33:00,
2014-01-21 12:38:00,59.4,47.2,29.59,SSW,203,7.4,14.3,64,0.00,,,0.00,WUHU216HW,2014-01-21 17:38:00,
2014-01-21 12:43:00,59.4,47.2,29.58,WSW,248,6.5,14.3,64,0.00,,,0.00,WUHU216HW,2014-01-21 17:43:00,
2014-01-21 12:48:00,59.4,47.2,29.58,SSW,203,7.2,13.0,64,0.00,,,0.00,WUHU216HW,2014-01-21 17:48:00,
2014-01-21 12:53:00,59.6,47.3,29.57,South,180,8.7,13.0,64,0.00,,,0.00,WUHU216HW,2014-01-21 17:53:00,
2014-01-21 12:58:00,59.4,47.2,29.57,WSW,248,12.8,13.0,64,0.00,,,0.00,WUHU216HW,2014-01-21 17:58:00,
2014-01-21 13:03:00,59.8,47.5,29.56,WSW,248,7.6,15.2,64,0.00,,,0.00,WUHU216HW,2014-01-21 18:03:00,
2014-01-21 13:08:00,59.9,47.4,29.56,WSW,248,7.8,15.2,63,0.00,,,0.00,WUHU216HW,2014-01-21 18:08:00,
2014-01-21 13:13:00,59.9,46.9,29.56,South,180,6.0,13.2,62,0.00,,,0.00,WUHU216HW,2014-01-21 18:13:00,
2014-01-21 13:18:00,60.1,47.5,29.56,SW,225,12.8,13.2,63,0.00,,,0.00,WUHU216HW,2014-01-21 18:18:00,
2014-01-21 13:23:00,60.3,47.7,29.56,WSW,248,5.4,12.8,63,0.00,,,0.00,WUHU216HW,2014-01-21 18:23:00,
2014-01-21 13:28:00,60.1,47.5,29.55,SSE,158,9.8,12.1,63,0.00,,,0.00,WUHU216HW,2014-01-21 18:28:00,
2014-01-21 13:33:00,60.1,47.1,29.55,SW,225,9.6,12.1,62,0.00,,,0.00,WUHU216HW,2014-01-21 18:33:00,
2014-01-21 13:38:00,60.1,47.1,29.55,South,180,11.4,11.4,62,0.00,,,0.00,WUHU216HW,2014-01-21 18:38:00,
2014-01-21 13:43:00,60.1,47.1,29.55,West,270,4.7,11.4,62,0.00,,,0.00,WUHU216HW,2014-01-21 18:43:00,
2014-01-21 13:48:00,60.1,47.1,29.54,SW,225,6.0,10.7,62,0.00,,,0.00,WUHU216HW,2014-01-21 18:48:00,
2014-01-21 13:53:00,60.1,47.1,29.54,ESE,113,6.7,19.0,62,0.00,,,0.00,WUHU216HW,2014-01-21 18:53:00,
2014-01-21 13:58:00,59.9,46.9,29.53,SSE,158,13.6,19.0,62,0.00,,,0.00,WUHU216HW,2014-01-21 18:58:00,
2014-01-21 14:03:00,59.8,46.7,29.53,WSW,248,6.3,18.6,62,0.00,,,0.00,WUHU216HW,2014-01-21 19:03:00,
2014-01-21 14:08:00,59.8,46.7,29.53,South,180,8.3,18.6,62,0.00,,,0.00,WUHU216HW,2014-01-21 19:08:00,
2014-01-21 14:13:00,59.8,47.2,29.53,South,180,7.8,12.1,63,0.00,,,0.00,WUHU216HW,2014-01-21 19:13:00,
2014-01-21 14:18:00,59.8,46.7,29.53,WSW,248,9.2,11.9,62,0.00,,,0.00,WUHU216HW,2014-01-21 19:18:00,
2014-01-21 14:23:00,59.6,46.5,29.52,SSW,203,6.3,14.3,62,0.00,,,0.00,WUHU216HW,2014-01-21 19:23:00,
2014-01-21 14:28:00,59.6,46.5,29.52,WSW,248,9.8,14.5,62,0.00,,,0.00,WUHU216HW,2014-01-21 19:28:00,
2014-01-21 14:33:00,59.4,46.4,29.52,SW,225,9.8,14.5,62,0.00,,,0.00,WUHU216HW,2014-01-21 19:33:00,
2014-01-21 14:38:00,59.4,46.4,29.52,SSW,203,8.5,13.6,62,0.00,,,0.00,WUHU216HW,2014-01-21 19:38:00,
2014-01-21 14:43:00,59.4,46.4,29.52,WSW,248,6.9,13.6,62,0.00,,,0.00,WUHU216HW,2014-01-21 19:43:00,
2014-01-21 14:48:00,59.4,46.4,29.52,SW,225,10.1,10.3,62,0.00,,,0.00,WUHU216HW,2014-01-21 19:48:00,
2014-01-21 14:53:00,59.4,46.4,29.51,SW,225,6.0,10.3,62,0.00,,,0.00,WUHU216HW,2014-01-21 19:53:00,
2014-01-21 14:58:00,59.4,46.4,29.51,SSW,203,8.7,10.7,62,0.00,,,0.00,WUHU216HW,2014-01-21 19:58:00,
2014-01-21 15:03:00,59.6,46.5,29.51,SSW,203,8.1,11.2,62,0.00,,,0.00,WUHU216HW,2014-01-21 20:03:00,
2014-01-21 15:08:00,59.4,46.4,29.50,WSW,248,8.5,11.2,62,0.00,,,0.00,WUHU216HW,2014-01-21 20:08:00,
2014-01-21 15:13:00,59.4,46.4,29.50,SW,225,7.8,11.6,62,0.00,,,0.00,WUHU216HW,2014-01-21 20:13:00,
2014-01-21 15:18:00,59.4,46.4,29.50,SW,225,8.3,11.6,62,0.00,,,0.00,WUHU216HW,2014-01-21 20:18:00,
2014-01-21 15:23:00,59.4,46.4,29.50,SW,225,7.8,11.2,62,0.00,,,0.00,WUHU216HW,2014-01-21 20:23:00,
2014-01-21 15:28:00,59.4,46.4,29.50,SW,225,6.9,12.5,62,0.00,,,0.00,WUHU216HW,2014-01-21 20:28:00,
2014-01-21 15:33:00,59.4,46.4,29.50,WSW,248,10.1,12.5,62,0.00,,,0.00,WUHU216HW,2014-01-21 20:33:00,
2014-01-21 15:38:00,59.4,46.4,29.50,SSW,203,7.2,10.7,62,0.00,,,0.00,WUHU216HW,2014-01-21 20:38:00,
2014-01-21 15:43:00,59.2,46.2,29.50,SW,225,5.8,9.6,62,0.00,,,0.00,WUHU216HW,2014-01-21 20:43:00,
2014-01-21 15:48:00,59.2,46.2,29.50,WSW,248,13.4,13.4,62,0.00,,,0.00,WUHU216HW,2014-01-21 20:48:00,
2014-01-21 15:53:00,59.0,46.0,29.50,South,180,5.4,13.9,62,0.00,,,0.00,WUHU216HW,2014-01-21 20:53:00,
2014-01-21 15:58:00,59.0,46.0,29.50,WSW,248,7.6,13.9,62,0.00,,,0.00,WUHU216HW,2014-01-21 20:58:00,
2014-01-21 16:03:00,58.9,45.8,29.50,WSW,248,7.8,11.6,62,0.00,,,0.00,WUHU216HW,2014-01-21 21:03:00,
2014-01-21 16:08:00,58.9,45.8,29.50,SW,225,6.7,10.5,62,0.00,,,0.00,WUHU216HW,2014-01-21 21:08:00,
2014-01-21 16:13:00,58.7,46.1,29.50,West,270,6.7,11.4,63,0.00,,,0.00,WUHU216HW,2014-01-21 21:13:00,
2014-01-21 16:18:00,58.7,46.1,29.50,SSW,203,6.3,11.4,63,0.00,,,0.00,WUHU216HW,2014-01-21 21:18:00,
2014-01-21 16:23:00,58.5,45.9,29.50,SSW,203,11.9,11.9,63,0.00,,,0.00,WUHU216HW,2014-01-21 21:23:00,
2014-01-21 16:28:00,58.3,46.2,29.50,WSW,248,11.4,13.4,64,0.00,,,0.00,WUHU216HW,2014-01-21 21:28:00,
2014-01-21 16:33:00,58.3,46.2,29.50,WSW,248,7.8,13.4,64,0.00,,,0.00,WUHU216HW,2014-01-21 21:33:00,
2014-01-21 16:38:00,58.0,45.8,29.50,WSW,248,4.5,11.4,64,0.00,,,0.00,WUHU216HW,2014-01-21 21:38:00,
2014-01-21 16:43:00,57.8,46.1,29.50,SSW,203,6.0,12.1,65,0.00,,,0.00,WUHU216HW,2014-01-21 21:43:00,
2014-01-21 16:48:00,57.6,46.3,29.50,SW,225,6.3,12.1,66,0.00,,,0.00,WUHU216HW,2014-01-21 21:48:00,
2014-01-21 16:53:00,57.2,45.9,29.50,WSW,248,7.6,11.0,66,0.00,,,0.00,WUHU216HW,2014-01-21 21:53:00,
2014-01-21 16:58:00,57.2,46.4,29.50,SW,225,5.8,8.3,67,0.00,,,0.00,WUHU216HW,2014-01-21 21:58:00,
2014-01-21 17:03:00,57.1,46.5,29.50,SW,225,7.6,7.6,68,0.00,,,0.00,WUHU216HW,2014-01-21 22:03:00,
2014-01-21 17:08:00,57.1,46.5,29.51,WSW,248,6.5,9.2,68,0.00,,,0.00,WUHU216HW,2014-01-21 22:08:00,
2014-01-21 17:13:00,57.1,46.5,29.51,SW,225,3.4,9.2,68,0.00,,,0.00,WUHU216HW,2014-01-21 22:13:00,
2014-01-21 17:18:00,56.9,46.8,29.50,WSW,248,4.9,14.3,69,0.00,,,0.00,WUHU216HW,2014-01-21 22:18:00,
2014-01-21 17:23:00,56.9,46.8,29.50,WSW,248,6.9,14.3,69,0.00,,,0.00,WUHU216HW,2014-01-21 22:23:00,
2014-01-21 17:28:00,56.9,46.8,29.50,West,270,9.2,10.1,69,0.00,,,0.00,WUHU216HW,2014-01-21 22:28:00,
2014-01-21 17:33:00,56.9,47.2,29.50,West,270,7.6,11.6,70,0.00,,,0.00,WUHU216HW,2014-01-21 22:33:00,
2014-01-21 17:38:00,56.9,47.2,29.50,SW,225,8.5,11.6,70,0.00,,,0.00,WUHU216HW,2014-01-21 22:38:00,
2014-01-21 17:43:00,56.7,47.1,29.49,WSW,248,2.2,10.1,70,0.01,,,0.00,WUHU216HW,2014-01-21 22:43:00,
2014-01-21 17:48:00,56.5,47.6,29.49,WSW,248,8.7,10.1,72,0.01,,,0.01,WUHU216HW,2014-01-21 22:48:00,
2014-01-21 17:53:00,56.2,47.6,29.49,SSW,203,4.3,8.7,73,0.01,,,0.01,WUHU216HW,2014-01-21 22:53:00,
2014-01-21 17:58:00,55.8,47.3,29.49,West,270,5.6,6.3,73,0.01,,,0.01,WUHU216HW,2014-01-21 22:58:00,
2014-01-21 18:03:00,55.6,47.8,29.49,WNW,293,1.8,8.1,75,0.01,,,0.01,WUHU216HW,2014-01-21 23:03:00,
2014-01-21 18:08:00,55.4,47.6,29.49,SW,225,3.6,8.1,75,0.01,,,0.01,WUHU216HW,2014-01-21 23:08:00,
2014-01-21 18:13:00,55.4,47.6,29.48,WSW,248,2.5,7.6,75,0.01,,,0.01,WUHU216HW,2014-01-21 23:13:00,
2014-01-21 18:18:00,55.3,47.8,29.48,SW,225,4.0,5.4,76,0.01,,,0.01,WUHU216HW,2014-01-21 23:18:00,
2014-01-21 18:23:00,55.3,47.8,29.49,WSW,248,4.9,5.4,76,0.01,,,0.01,WUHU216HW,2014-01-21 23:23:00,
2014-01-21 18:28:00,55.3,48.5,29.50,WSW,248,6.3,8.9,78,0.05,,,0.04,WUHU216HW,2014-01-21 23:28:00,
2014-01-21 18:33:00,54.7,48.0,29.49,WSW,248,11.4,14.3,78,0.10,,,0.11,WUHU216HW,2014-01-21 23:33:00,
2014-01-21 18:38:00,54.4,47.3,29.49,WSW,248,4.9,14.3,77,0.10,,,0.11,WUHU216HW,2014-01-21 23:38:00,
2014-01-21 18:43:00,53.8,47.2,29.49,SW,225,6.7,11.4,78,0.09,,,0.11,WUHU216HW,2014-01-21 23:43:00,
2014-01-21 18:48:00,53.6,47.0,29.48,SW,225,3.1,11.4,78,0.09,,,0.11,WUHU216HW,2014-01-21 23:48:00,
2014-01-21 18:53:00,53.5,46.8,29.47,WSW,248,4.7,9.8,78,0.09,,,0.11,WUHU216HW,2014-01-21 23:53:00,
2014-01-21 18:58:00,53.3,46.6,29.47,WSW,248,3.8,6.3,78,0.09,,,0.11,WUHU216HW,2014-01-21 23:58:00,
2014-01-21 19:03:00,53.3,46.6,29.47,WSW,248,1.8,6.3,78,0.09,,,0.11,WUHU216HW,2014-01-22 00:03:00,
2014-01-21 19:08:00,53.3,47.0,29.47,WSW,248,7.8,7.8,79,0.09,,,0.11,WUHU216HW,2014-01-22 00:08:00,
2014-01-21 19:13:00,53.3,47.3,29.47,West,270,15.0,15.0,80,0.09,,,0.11,WUHU216HW,2014-01-22 00:13:00,
2014-01-21 19:18:00,53.3,47.0,29.47,ESE,113,2.5,15.0,79,0.09,,,0.11,WUHU216HW,2014-01-22 00:18:00,
2014-01-21 19:23:00,53.3,47.0,29.46,WNW,293,6.9,15.0,79,0.09,,,0.11,WUHU216HW,2014-01-22 00:23:00,
2014-01-21 19:28:00,53.1,46.8,29.45,SW,225,4.0,11.4,79,0.01,,,0.11,WUHU216HW,2014-01-22 00:28:00,
2014-01-21 19:33:00,52.7,46.4,29.46,WSW,248,4.3,11.4,79,0.00,,,0.11,WUHU216HW,2014-01-22 00:33:00,
2014-01-21 19:38:00,52.4,46.1,29.45,NNW,338,4.0,9.4,79,0.00,,,0.11,WUHU216HW,2014-01-22 00:38:00,
2014-01-21 19:43:00,52.2,45.9,29.44,West,270,1.1,9.4,79,0.00,,,0.11,WUHU216HW,2014-01-22 00:43:00,
2014-01-21 19:48:00,52.0,45.4,29.44,East,90,0.2,4.0,78,0.00,,,0.11,WUHU216HW,2014-01-22 00:48:00,
2014-01-21 19:53:00,51.7,45.4,29.44,NW,315,0.0,2.0,79,0.00,,,0.11,WUHU216HW,2014-01-22 00:53:00,
2014-01-21 19:58:00,51.5,45.2,29.44,North,0,0.0,2.0,79,0.00,,,0.11,WUHU216HW,2014-01-22 00:58:00,
2014-01-21 20:03:00,51.1,44.8,29.45,NW,315,1.8,1.8,79,0.00,,,0.11,WUHU216HW,2014-01-22 01:03:00,
2014-01-21 20:08:00,50.9,45.0,29.45,North,0,0.7,1.8,80,0.00,,,0.11,WUHU216HW,2014-01-22 01:08:00,
2014-01-21 20:13:00,50.8,44.8,29.45,NNE,23,1.8,1.8,80,0.00,,,0.11,WUHU216HW,2014-01-22 01:13:00,
2014-01-21 20:18:00,50.6,45.3,29.46,North,0,8.5,9.4,82,0.00,,,0.11,WUHU216HW,2014-01-22 01:18:00,
2014-01-21 20:23:00,50.0,43.7,29.47,NE,45,9.4,10.3,79,0.00,,,0.11,WUHU216HW,2014-01-22 01:23:00,
2014-01-21 20:28:00,49.0,42.3,29.47,North,0,9.6,15.0,78,0.00,,,0.11,WUHU216HW,2014-01-22 01:28:00,
2014-01-21 20:33:00,47.9,41.9,29.47,NNE,23,8.1,15.0,80,0.00,,,0.11,WUHU216HW,2014-01-22 01:33:00,
2014-01-21 20:38:00,47.2,41.3,29.47,North,0,6.7,11.4,80,0.00,,,0.11,WUHU216HW,2014-01-22 01:38:00,
2014-01-21 20:43:00,46.4,40.7,29.48,NNE,23,7.6,11.9,80,0.00,,,0.11,WUHU216HW,2014-01-22 01:43:00,
2014-01-21 20:48:00,45.9,40.1,29.49,North,0,9.8,13.2,80,0.00,,,0.11,WUHU216HW,2014-01-22 01:48:00,
2014-01-21 20:53:00,45.4,39.9,29.49,North,0,7.4,13.2,81,0.00,,,0.11,WUHU216HW,2014-01-22 01:53:00,
2014-01-21 20:58:00,45.0,39.5,29.49,North,0,10.5,14.3,81,0.00,,,0.11,WUHU216HW,2014-01-22 01:58:00,
2014-01-21 21:03:00,44.5,39.0,29.50,NNE,23,9.6,17.2,81,0.00,,,0.11,WUHU216HW,2014-01-22 02:03:00,
2014-01-21 21:08:00,44.3,39.4,29.52,NNE,23,8.7,17.2,83,0.00,,,0.11,WUHU216HW,2014-01-22 02:08:00,
2014-01-21 21:13:00,43.9,39.1,29.52,NNW,338,6.0,13.9,83,0.00,,,0.11,WUHU216HW,2014-01-22 02:13:00,
2014-01-21 21:18:00,43.7,38.6,29.52,North,0,3.8,13.9,82,0.00,,,0.11,WUHU216HW,2014-01-22 02:18:00,
2014-01-21 21:23:00,43.6,38.4,29.52,North,0,3.4,11.6,82,0.00,,,0.11,WUHU216HW,2014-01-22 02:23:00,
2014-01-21 21:28:00,43.4,38.5,29.53,NNE,23,7.6,9.8,83,0.00,,,0.11,WUHU216HW,2014-01-22 02:28:00,
2014-01-21 21:33:00,43.0,37.9,29.54,NE,45,5.8,12.5,82,0.00,,,0.11,WUHU216HW,2014-01-22 02:33:00,
2014-01-21 21:38:00,42.8,37.7,29.54,North,0,8.1,14.1,82,0.00,,,0.11,WUHU216HW,2014-01-22 02:38:00,
2014-01-21 21:43:00,42.3,37.2,29.55,NE,45,7.4,14.1,82,0.00,,,0.11,WUHU216HW,2014-01-22 02:43:00,
2014-01-21 21:48:00,42.1,36.6,29.56,North,0,4.7,13.0,81,0.00,,,0.11,WUHU216HW,2014-01-22 02:48:00,
2014-01-21 21:53:00,41.8,36.3,29.57,NE,45,7.2,12.1,81,0.00,,,0.11,WUHU216HW,2014-01-22 02:53:00,
2014-01-21 21:58:00,41.4,36.3,29.56,NNE,23,4.9,12.1,82,0.00,,,0.11,WUHU216HW,2014-01-22 02:58:00,
2014-01-21 22:03:00,41.4,36.3,29.56,North,0,8.7,13.6,82,0.00,,,0.11,WUHU216HW,2014-01-22 03:03:00,
2014-01-21 22:08:00,41.4,36.3,29.57,NE,45,2.5,13.6,82,0.00,,,0.11,WUHU216HW,2014-01-22 03:08:00,
2014-01-21 22:13:00,41.4,36.3,29.58,North,0,3.6,9.6,82,0.00,,,0.11,WUHU216HW,2014-01-22 03:13:00,
2014-01-21 22:18:00,41.0,36.2,29.59,NE,45,5.8,13.4,83,0.00,,,0.11,WUHU216HW,2014-01-22 03:18:00,
2014-01-21 22:23:00,40.7,35.6,29.60,NNE,23,6.0,13.4,82,0.00,,,0.11,WUHU216HW,2014-01-22 03:23:00,
2014-01-21 22:28:00,40.0,34.3,29.60,North,0,5.6,10.3,80,0.00,,,0.11,WUHU216HW,2014-01-22 03:28:00,
2014-01-21 22:33:00,39.6,34.0,29.60,NE,45,1.3,7.4,80,0.00,,,0.11,WUHU216HW,2014-01-22 03:33:00,
2014-01-21 22:38:00,39.1,33.5,29.61,SSE,158,4.3,5.8,80,0.00,,,0.11,WUHU216HW,2014-01-22 03:38:00,
2014-01-21 22:43:00,38.3,32.8,29.61,North,0,6.0,6.0,80,0.00,,,0.11,WUHU216HW,2014-01-22 03:43:00,
2014-01-21 22:48:00,38.0,32.4,29.62,NE,45,2.5,6.0,80,0.00,,,0.11,WUHU216HW,2014-01-22 03:48:00,
2014-01-21 22:53:00,37.8,32.2,29.62,NNE,23,1.3,6.3,80,0.00,,,0.11,WUHU216HW,2014-01-22 03:53:00,
2014-01-21 22:58:00,37.4,31.9,29.62,WSW,248,4.0,6.9,80,0.00,,,0.11,WUHU216HW,2014-01-22 03:58:00,
2014-01-21 23:03:00,36.9,31.0,29.63,NNE,23,3.4,7.6,79,0.00,,,0.11,WUHU216HW,2014-01-22 04:03:00,
2014-01-21 23:08:00,36.7,30.5,29.63,North,0,10.1,10.1,78,0.00,,,0.11,WUHU216HW,2014-01-22 04:08:00,
2014-01-21 23:13:00,36.4,30.2,29.62,NE,45,2.9,10.3,78,0.00,,,0.11,WUHU216HW,2014-01-22 04:13:00,
2014-01-21 23:18:00,35.8,29.6,29.63,North,0,7.2,13.2,78,0.00,,,0.11,WUHU216HW,2014-01-22 04:18:00,
2014-01-21 23:23:00,35.6,30.1,29.63,NNW,338,4.0,13.2,80,0.00,,,0.11,WUHU216HW,2014-01-22 04:23:00,
2014-01-21 23:28:00,35.3,29.3,29.64,NE,45,4.5,7.6,79,0.00,,,0.11,WUHU216HW,2014-01-22 04:28:00,
2014-01-21 23:33:00,34.9,28.7,29.64,NW,315,4.5,8.7,78,0.00,,,0.11,WUHU216HW,2014-01-22 04:33:00,
2014-01-21 23:38:00,34.4,28.2,29.65,NNE,23,6.3,10.7,78,0.00,,,0.11,WUHU216HW,2014-01-22 04:38:00,
2014-01-21 23:43:00,34.0,28.1,29.65,NE,45,1.6,10.7,79,0.00,,,0.11,WUHU216HW,2014-01-22 04:43:00,
2014-01-21 23:48:00,33.7,28.1,29.65,North,0,5.1,10.1,80,0.00,,,0.11,WUHU216HW,2014-01-22 04:48:00,
2014-01-21 23:53:00,33.5,27.9,29.65,North,0,7.2,10.1,80,0.00,,,0.11,WUHU216HW,2014-01-22 04:53:00,
2014-01-21 23:58:00,33.1,27.6,29.65,North,0,5.6,8.3,80,0.00,,,0.11,WUHU216HW,2014-01-22 04:58:00,